Time;durP1;ratioP1;P1;durP2;ratioP2;P2;SDS_P1;SDS_P2;PMS_P1;PMS_P2;Temp;Humidity;BMP_temperature;BMP_pressure;BME280_temperature;BME280_humidity;BME280_pressure;Samples;Min_cycle;Max_cycle;Signal;HPM_P1;HPM_P2
2021/10/09 00:01:26;;;;;;;58.33;24.15;;;;;;;;;;5067450;28;20489;-86
2021/10/09 00:03:54;;;;;;;60.42;24.38;;;;;;;;;;5071157;28;20546;-85
2021/10/09 00:06:21;;;;;;;61.47;25.40;;;;;;;;;;5074553;28;20040;-85
2021/10/09 00:08:48;;;;;;;58.47;22.05;;;;;;;;;;5082811;28;20045;-86
2021/10/09 00:11:21;;;;;;;55.05;24.65;;;;;;;;;;5065745;28;20703;-86
2021/10/09 00:13:48;;;;;;;54.90;24.30;;;;;;;;;;5060082;28;20084;-85
2021/10/09 00:16:22;;;;;;;59.83;23.17;;;;;;;;;;5076643;28;20055;-86
2021/10/09 00:18:49;;;;;;;52.67;22.60;;;;;;;;;;5060621;28;20565;-86
2021/10/09 00:21:17;;;;;;;53.60;24.60;;;;;;;;;;5067287;28;20120;-85
2021/10/09 00:23:44;;;;;;;63.17;25.38;;;;;;;;;;5059570;28;20573;-85
2021/10/09 00:26:12;;;;;;;72.60;27.20;;;;;;;;;;5072412;28;20076;-86
2021/10/09 00:28:39;;;;;;;79.97;28.30;;;;;;;;;;5059250;28;20128;-86
2021/10/09 00:31:06;;;;;;;81.13;27.17;;;;;;;;;;5081860;28;20087;-86
2021/10/09 00:33:33;;;;;;;58.10;23.83;;;;;;;;;;5071503;28;20056;-85
2021/10/09 00:36:00;;;;;;;71.35;27.40;;;;;;;;;;5080939;28;20154;-85
2021/10/09 00:38:28;;;;;;;62.10;25.75;;;;;;;;;;5064583;28;20060;-86
2021/10/09 00:40:55;;;;;;;62.90;26.05;;;;;;;;;;5072671;28;20123;-85
2021/10/09 00:43:23;;;;;;;60.92;26.30;;;;;;;;;;5063185;28;20100;-85
2021/10/09 00:45:51;;;;;;;66.25;25.65;;;;;;;;;;5068672;28;20129;-85
2021/10/09 00:48:19;;;;;;;55.90;23.67;;;;;;;;;;5063915;28;20223;-86
2021/10/09 00:50:46;;;;;;;58.10;24.70;;;;;;;;;;5072491;28;20126;-86
2021/10/09 00:53:14;;;;;;;67.85;25.95;;;;;;;;;;5061520;28;20068;-86
2021/10/09 00:55:42;;;;;;;65.18;23.98;;;;;;;;;;5064610;28;20128;-86
2021/10/09 00:58:09;;;;;;;57.83;23.10;;;;;;;;;;5066917;28;20152;-86
2021/10/09 01:00:39;;;;;;;59.05;24.67;;;;;;;;;;5058552;28;20134;-86
2021/10/09 01:03:07;;;;;;;59.13;24.35;;;;;;;;;;5070293;28;20078;-85
2021/10/09 01:05:35;;;;;;;63.75;25.88;;;;;;;;;;5077646;28;20072;-86
2021/10/09 01:08:02;;;;;;;56.53;24.08;;;;;;;;;;5067580;28;20076;-86
2021/10/09 01:10:30;;;;;;;57.28;24.35;;;;;;;;;;5052092;28;20098;-86
2021/10/09 01:12:59;;;;;;;56.15;23.73;;;;;;;;;;5059511;28;20137;-86
2021/10/09 01:15:33;;;;;;;56.38;24.48;;;;;;;;;;5060284;28;20496;-86
2021/10/09 01:18:11;;;;;;;56.13;23.80;;;;;;;;;;5071362;28;20079;-86
2021/10/09 01:20:55;;;;;;;49.13;22.20;;;;;;;;;;5073134;28;20115;-86
2021/10/09 01:23:23;;;;;;;57.95;24.13;;;;;;;;;;5052185;28;20143;-86
2021/10/09 01:25:51;;;;;;;58.10;25.17;;;;;;;;;;5069794;28;20048;-87
2021/10/09 01:28:18;;;;;;;63.70;24.85;;;;;;;;;;5076186;28;20125;-86
2021/10/09 01:30:45;;;;;;;62.35;24.88;;;;;;;;;;5066701;28;20045;-86
2021/10/09 01:33:15;;;;;;;64.57;25.00;;;;;;;;;;5066724;28;20059;-86
2021/10/09 01:35:49;;;;;;;57.22;23.55;;;;;;;;;;5066129;28;20044;-86
2021/10/09 01:38:18;;;;;;;58.35;24.50;;;;;;;;;;5078576;28;20084;-86
2021/10/09 01:40:45;;;;;;;51.65;23.13;;;;;;;;;;5056929;28;20059;-86
2021/10/09 01:43:14;;;;;;;56.10;23.85;;;;;;;;;;5069248;28;20072;-86
2021/10/09 01:45:48;;;;;;;53.05;24.38;;;;;;;;;;5058720;28;20199;-86
2021/10/09 01:48:16;;;;;;;55.92;23.38;;;;;;;;;;5070679;28;20102;-85
2021/10/09 01:50:44;;;;;;;50.55;22.50;;;;;;;;;;5066758;28;20677;-86
2021/10/09 01:53:11;;;;;;;48.83;21.55;;;;;;;;;;5064926;28;20144;-86
2021/10/09 01:55:39;;;;;;;48.55;21.92;;;;;;;;;;5064149;28;20123;-85
2021/10/09 01:58:07;;;;;;;56.22;22.83;;;;;;;;;;5056741;28;20071;-86
2021/10/09 02:00:34;;;;;;;42.92;20.83;;;;;;;;;;5054968;28;20127;-86
2021/10/09 02:03:04;;;;;;;46.33;20.40;;;;;;;;;;5062011;28;20044;-86
2021/10/09 02:05:32;;;;;;;45.85;20.13;;;;;;;;;;5060892;28;20094;-86
2021/10/09 02:08:00;;;;;;;41.92;19.70;;;;;;;;;;5083440;28;20123;-86
2021/10/09 02:10:28;;;;;;;41.95;18.70;;;;;;;;;;5065116;28;20459;-86
2021/10/09 02:12:57;;;;;;;42.80;20.17;;;;;;;;;;5081377;28;20452;-87
2021/10/09 02:15:35;;;;;;;38.10;18.63;;;;;;;;;;5088318;28;20127;-86
2021/10/09 02:26:07;;;;;;;42.22;18.90;;;;;;;;;;5071715;28;20052;-89
2021/10/09 02:28:34;;;;;;;42.42;19.70;;;;;;;;;;5070126;28;20049;-87
2021/10/09 02:31:02;;;;;;;56.35;21.45;;;;;;;;;;5064697;28;20095;-87
2021/10/09 02:33:29;;;;;;;39.63;19.70;;;;;;;;;;5091276;28;20067;-87
2021/10/09 02:35:56;;;;;;;30.73;16.38;;;;;;;;;;5069109;28;20125;-86
2021/10/09 02:38:23;;;;;;;50.22;19.35;;;;;;;;;;5082667;28;20094;-86
2021/10/09 02:40:51;;;;;;;34.08;17.13;;;;;;;;;;5065815;28;20430;-86
2021/10/09 02:43:18;;;;;;;37.45;17.15;;;;;;;;;;5066839;28;20071;-87
2021/10/09 02:45:45;;;;;;;41.10;19.85;;;;;;;;;;5059389;28;20153;-88
2021/10/09 02:48:15;;;;;;;44.92;19.25;;;;;;;;;;5064300;28;20727;-87
2021/10/09 02:50:46;;;;;;;50.92;21.13;;;;;;;;;;5056856;28;20068;-86
2021/10/09 02:53:14;;;;;;;36.92;18.10;;;;;;;;;;5063602;28;20049;-86
2021/10/09 02:55:41;;;;;;;42.65;19.33;;;;;;;;;;5073519;28;20097;-87
2021/10/09 02:58:08;;;;;;;37.97;19.10;;;;;;;;;;5070122;28;20083;-86
2021/10/09 03:00:35;;;;;;;51.53;20.30;;;;;;;;;;5068860;28;20040;-88
2021/10/09 03:03:02;;;;;;;50.80;21.50;;;;;;;;;;5059447;28;20044;-87
2021/10/09 03:05:30;;;;;;;52.83;22.17;;;;;;;;;;5066514;28;20051;-86
2021/10/09 03:07:57;;;;;;;48.65;22.88;;;;;;;;;;5063133;28;20504;-87
2021/10/09 03:10:50;;;;;;;61.42;23.50;;;;;;;;;;5063994;28;20420;-87
2021/10/09 03:13:17;;;;;;;61.25;24.58;;;;;;;;;;5069901;28;20126;-89
2021/10/09 03:15:44;;;;;;;53.60;22.58;;;;;;;;;;5058279;28;20049;-88
2021/10/09 03:18:11;;;;;;;58.63;23.80;;;;;;;;;;5084060;28;20059;-88
2021/10/09 03:20:40;;;;;;;55.53;22.98;;;;;;;;;;5050779;28;20570;-89
2021/10/09 03:23:08;;;;;;;54.95;24.17;;;;;;;;;;5060194;28;20127;-89
2021/10/09 03:25:35;;;;;;;52.72;23.95;;;;;;;;;;5071698;28;20480;-88
2021/10/09 03:28:03;;;;;;;59.25;25.60;;;;;;;;;;5074475;28;20079;-88
2021/10/09 03:30:31;;;;;;;58.85;24.38;;;;;;;;;;5074226;28;20131;-88
2021/10/09 03:33:02;;;;;;;59.25;24.85;;;;;;;;;;5065881;28;20049;-88
2021/10/09 03:35:29;;;;;;;53.20;24.85;;;;;;;;;;5059442;28;20552;-89
2021/10/09 03:37:57;;;;;;;65.97;26.10;;;;;;;;;;5070439;28;20076;-89
2021/10/09 03:40:26;;;;;;;64.05;25.80;;;;;;;;;;5058635;28;20572;-89
2021/10/09 03:43:08;;;;;;;54.28;23.75;;;;;;;;;;5068004;28;20051;-89
2021/10/09 03:45:55;;;;;;;58.67;23.42;;;;;;;;;;5068454;28;20040;-89
2021/10/09 03:54:10;;;;;;;54.35;23.02;;;;;;;;;;5067417;28;20076;-89
2021/10/09 03:56:37;;;;;;;59.13;24.05;;;;;;;;;;5073932;28;20095;-88
2021/10/09 03:59:04;;;;;;;63.17;25.75;;;;;;;;;;5062110;28;20067;-89
2021/10/09 04:01:32;;;;;;;62.47;25.13;;;;;;;;;;5073820;28;20051;-89
2021/10/09 04:04:00;;;;;;;69.85;25.83;;;;;;;;;;5068451;28;20052;-88
2021/10/09 04:06:30;;;;;;;62.70;24.83;;;;;;;;;;5064082;28;20048;-88
2021/10/09 04:08:57;;;;;;;69.45;27.25;;;;;;;;;;5069239;28;20127;-88
2021/10/09 04:11:24;;;;;;;75.85;26.90;;;;;;;;;;5072949;28;20068;-88
2021/10/09 04:13:51;;;;;;;67.80;24.90;;;;;;;;;;5072849;28;20041;-89
2021/10/09 04:16:26;;;;;;;63.88;25.42;;;;;;;;;;5060588;28;20077;-89
2021/10/09 04:18:53;;;;;;;64.13;24.20;;;;;;;;;;5068259;28;20143;-88
2021/10/09 04:21:21;;;;;;;63.83;26.63;;;;;;;;;;5067245;28;20560;-87
2021/10/09 04:23:48;;;;;;;63.67;25.92;;;;;;;;;;5058944;28;20475;-88
2021/10/09 04:26:15;;;;;;;73.45;25.80;;;;;;;;;;5070517;28;20131;-88
2021/10/09 04:28:43;;;;;;;61.13;24.27;;;;;;;;;;5065775;28;20048;-87
2021/10/09 04:31:12;;;;;;;61.35;25.92;;;;;;;;;;5068000;28;20060;-88
2021/10/09 04:33:39;;;;;;;63.67;25.98;;;;;;;;;;5060819;28;20076;-88
2021/10/09 04:36:08;;;;;;;68.50;25.90;;;;;;;;;;5077652;28;20076;-87
2021/10/09 04:38:35;;;;;;;72.00;27.05;;;;;;;;;;5070879;28;20068;-88
2021/10/09 04:41:02;;;;;;;59.53;23.77;;;;;;;;;;5069981;28;20604;-86
2021/10/09 04:43:29;;;;;;;64.60;26.05;;;;;;;;;;5072376;28;20044;-89
2021/10/09 04:45:57;;;;;;;61.60;27.05;;;;;;;;;;5071826;28;20550;-88
2021/10/09 04:48:24;;;;;;;60.00;26.42;;;;;;;;;;5058529;28;20051;-88
2021/10/09 04:50:51;;;;;;;63.15;27.17;;;;;;;;;;5070929;28;20044;-91
2021/10/09 04:53:20;;;;;;;77.07;26.63;;;;;;;;;;5070498;28;20556;-91
2021/10/09 04:55:50;;;;;;;55.00;24.10;;;;;;;;;;5071332;28;20105;-92
2021/10/09 04:58:18;;;;;;;64.03;25.45;;;;;;;;;;5070102;28;20080;-90
2021/10/09 05:00:45;;;;;;;63.38;26.00;;;;;;;;;;5072733;28;20127;-91
2021/10/09 05:03:17;;;;;;;57.15;23.85;;;;;;;;;;5074191;28;20477;-90
2021/10/09 05:05:45;;;;;;;61.22;25.10;;;;;;;;;;5063497;28;20127;-92
2021/10/09 05:08:12;;;;;;;65.70;25.20;;;;;;;;;;5104060;27;20084;-91
2021/10/09 05:10:41;;;;;;;57.92;24.92;;;;;;;;;;5063522;28;20090;-90
2021/10/09 05:13:08;;;;;;;61.05;24.63;;;;;;;;;;5058444;28;20079;-93
2021/10/09 05:15:39;;;;;;;58.17;24.08;;;;;;;;;;5074287;28;20135;-93
2021/10/09 05:18:06;;;;;;;70.85;26.40;;;;;;;;;;5068126;28;20114;-92
2021/10/09 05:20:34;;;;;;;58.55;24.40;;;;;;;;;;5073779;28;20102;-92
2021/10/09 05:23:01;;;;;;;55.42;23.23;;;;;;;;;;5059350;28;20477;-92
2021/10/09 05:25:31;;;;;;;54.08;22.15;;;;;;;;;;5071404;28;20044;-92
2021/10/09 05:28:05;;;;;;;59.88;22.02;;;;;;;;;;5065247;28;20049;-92
2021/10/09 05:33:36;;;;;;;55.88;23.10;;;;;;;;;;4975113;28;20050;-92
2021/10/09 05:36:04;;;;;;;55.38;23.38;;;;;;;;;;4978917;28;20054;-92
2021/10/09 05:38:32;;;;;;;55.90;22.23;;;;;;;;;;4983841;28;20085;-93
2021/10/09 05:40:59;;;;;;;51.55;22.45;;;;;;;;;;5035333;23;20106;-88
2021/10/09 05:43:26;;;;;;;51.60;23.20;;;;;;;;;;5063186;28;20127;-88
2021/10/09 05:45:54;;;;;;;50.72;22.63;;;;;;;;;;5050577;28;20589;-88
2021/10/09 05:48:21;;;;;;;56.75;22.33;;;;;;;;;;5067730;28;20052;-89
2021/10/09 05:53:51;;;;;;;61.28;22.98;;;;;;;;;;5044869;28;22113;-88
2021/10/09 05:56:26;;;;;;;57.10;24.02;;;;;;;;;;5048347;28;20778;-88
2021/10/09 06:32:30;;;;;;;77.13;27.73;;;;;;;;;;5044743;28;20149;-89
2021/10/09 06:49:52;;;;;;;73.20;27.10;;;;;;;;;;5044455;28;20049;-87
2021/10/09 07:00:03;;;;;;;60.97;25.23;;;;;;;;;;5047591;28;20079;-87
2021/10/09 07:02:30;;;;;;;75.32;27.48;;;;;;;;;;5043491;28;20127;-84
2021/10/09 07:05:00;;;;;;;73.90;26.73;;;;;;;;;;5045076;28;20056;-88
2021/10/09 07:07:27;;;;;;;68.55;27.83;;;;;;;;;;5047993;28;20045;-86
2021/10/09 07:10:00;;;;;;;64.55;26.65;;;;;;;;;;5050660;28;20131;-87
2021/10/09 07:12:27;;;;;;;67.97;27.60;;;;;;;;;;5033635;28;20760;-90
2021/10/09 07:14:55;;;;;;;67.82;25.50;;;;;;;;;;5061571;28;20075;-83
2021/10/09 07:17:22;;;;;;;61.72;25.95;;;;;;;;;;5044865;28;20053;-86
2021/10/09 07:19:49;;;;;;;62.15;25.77;;;;;;;;;;5063761;28;20627;-82
2021/10/09 07:22:16;;;;;;;65.15;27.33;;;;;;;;;;5049666;28;20693;-83
2021/10/09 07:25:05;;;;;;;69.85;25.30;;;;;;;;;;5050310;28;20461;-83
2021/10/09 07:27:34;;;;;;;56.20;24.25;;;;;;;;;;5057083;28;20606;-82
2021/10/09 07:30:01;;;;;;;59.28;25.88;;;;;;;;;;5051674;28;20136;-84
2021/10/09 07:32:30;;;;;;;65.63;25.13;;;;;;;;;;5049804;28;20076;-90
2021/10/09 07:34:57;;;;;;;63.28;24.48;;;;;;;;;;5049589;28;20111;-84
2021/10/09 07:37:24;;;;;;;65.00;26.70;;;;;;;;;;5049571;28;20057;-84
2021/10/09 07:39:52;;;;;;;60.00;24.83;;;;;;;;;;5049236;28;20125;-85
2021/10/09 07:42:20;;;;;;;57.20;25.08;;;;;;;;;;5057991;28;20068;-84
2021/10/09 07:44:50;;;;;;;63.22;26.65;;;;;;;;;;5042887;28;20055;-85
2021/10/09 07:47:24;;;;;;;64.07;26.52;;;;;;;;;;5059786;28;20548;-85
2021/10/09 07:49:53;;;;;;;61.33;25.08;;;;;;;;;;5059399;28;20990;-86
2021/10/09 07:52:20;;;;;;;57.08;23.42;;;;;;;;;;5049499;28;20075;-84
2021/10/09 07:54:49;;;;;;;54.22;22.85;;;;;;;;;;5049146;28;20080;-86
2021/10/09 07:57:16;;;;;;;48.88;22.65;;;;;;;;;;5050029;28;20766;-86
2021/10/09 07:59:43;;;;;;;66.32;23.50;;;;;;;;;;5047907;28;20076;-87
2021/10/09 08:02:10;;;;;;;44.25;21.25;;;;;;;;;;5048619;28;20128;-87
2021/10/09 08:04:40;;;;;;;47.10;20.95;;;;;;;;;;5048990;28;20041;-87
2021/10/09 08:07:07;;;;;;;59.78;23.23;;;;;;;;;;5050683;28;20076;-87
2021/10/09 08:09:35;;;;;;;43.92;21.42;;;;;;;;;;5058711;28;20076;-88
2021/10/09 08:12:04;;;;;;;45.95;20.13;;;;;;;;;;5036828;28;20052;-86
2021/10/09 08:14:31;;;;;;;52.05;20.92;;;;;;;;;;5053246;28;20124;-86
2021/10/09 08:16:58;;;;;;;51.40;20.83;;;;;;;;;;5053155;28;20136;-86
2021/10/09 08:19:25;;;;;;;39.67;19.33;;;;;;;;;;5055481;28;20076;-86
2021/10/09 08:21:54;;;;;;;47.75;20.55;;;;;;;;;;5054270;28;20128;-85
2021/10/09 08:24:30;;;;;;;46.03;19.98;;;;;;;;;;5053520;28;20076;-87
2021/10/09 08:40:37;;;;;;;50.60;18.48;;;;;;;;;;5055054;28;20119;-89
2021/10/09 08:43:04;;;;;;;37.45;18.85;;;;;;;;;;5053598;28;20468;-85
2021/10/09 08:45:35;;;;;;;57.67;19.05;;;;;;;;;;5055704;28;20095;-89
2021/10/09 08:48:06;;;;;;;39.97;16.77;;;;;;;;;;5053734;28;20071;-90
2021/10/09 08:50:33;;;;;;;38.65;17.15;;;;;;;;;;5056133;28;20136;-87
2021/10/09 08:53:03;;;;;;;38.83;16.58;;;;;;;;;;5053965;28;20045;-88
2021/10/09 08:55:34;;;;;;;42.17;17.55;;;;;;;;;;5052706;28;20500;-87
2021/10/09 08:58:04;;;;;;;44.63;17.60;;;;;;;;;;5052405;28;20645;-87
2021/10/09 09:00:44;;;;;;;40.03;16.15;;;;;;;;;;5052195;28;20048;-86
2021/10/09 09:03:18;;;;;;;37.42;16.45;;;;;;;;;;5052487;28;20139;-86
2021/10/09 09:25:30;;;;;;;31.90;14.30;;;;;;;;;;5048547;28;20041;-86
2021/10/09 09:34:36;;;;;;;22.42;10.18;;;;;;;;;;5053240;28;20131;-83
2021/10/09 09:36:40;;;;;;;26.90;11.18;;;;;;;;;;5055227;28;20079;-86
2021/10/09 09:39:10;;;;;;;22.55;10.05;;;;;;;;;;5053507;28;20553;-86
2021/10/09 09:41:49;;;;;;;31.58;11.02;;;;;;;;;;5051229;28;20063;-86
2021/10/09 09:44:25;;;;;;;28.33;10.05;;;;;;;;;;5051003;28;20041;-86
2021/10/09 09:47:03;;;;;;;22.85;10.73;;;;;;;;;;5052807;28;20037;-86
2021/10/09 09:49:51;;;;;;;27.83;10.02;;;;;;;;;;5060506;28;20482;-86
2021/10/09 09:52:18;;;;;;;28.70;9.35;;;;;;;;;;5070091;28;20075;-86
2021/10/09 09:54:45;;;;;;;25.55;8.85;;;;;;;;;;5059624;28;20053;-85
2021/10/09 09:57:13;;;;;;;20.85;10.07;;;;;;;;;;5060431;28;20074;-86
2021/10/09 09:59:42;;;;;;;21.33;8.85;;;;;;;;;;5050755;28;20076;-86
2021/10/09 10:02:10;;;;;;;29.80;9.32;;;;;;;;;;5051552;28;20080;-86
2021/10/09 10:04:37;;;;;;;21.52;8.35;;;;;;;;;;5050571;28;20123;-86
2021/10/09 10:07:04;;;;;;;21.20;8.95;;;;;;;;;;5050911;28;20497;-86
2021/10/09 10:09:32;;;;;;;23.42;8.57;;;;;;;;;;5070878;28;20159;-85
2021/10/09 10:12:00;;;;;;;22.05;8.57;;;;;;;;;;5051839;28;20049;-86
2021/10/09 10:14:28;;;;;;;21.77;8.13;;;;;;;;;;5050925;28;20103;-84
2021/10/09 10:16:56;;;;;;;20.80;7.35;;;;;;;;;;5050700;28;20588;-83
2021/10/09 10:19:46;;;;;;;20.23;7.28;;;;;;;;;;5050761;28;20520;-82
2021/10/09 10:22:13;;;;;;;19.88;8.50;;;;;;;;;;5033247;28;20153;-84
2021/10/09 10:24:45;;;;;;;24.33;7.55;;;;;;;;;;5050247;28;20524;-84
2021/10/09 10:27:32;;;;;;;15.25;6.68;;;;;;;;;;5060494;28;20127;-84
2021/10/09 10:30:14;;;;;;;20.23;6.25;;;;;;;;;;5067711;28;20072;-84
2021/10/09 10:32:53;;;;;;;17.10;7.20;;;;;;;;;;5050586;28;20088;-84
2021/10/09 10:35:40;;;;;;;17.20;6.30;;;;;;;;;;5057711;28;20132;-84
2021/10/09 10:38:16;;;;;;;22.60;8.15;;;;;;;;;;5072769;28;20500;-84
2021/10/09 10:40:45;;;;;;;;;;;;;;;;;;5064509;28;20076;-84
2021/10/09 10:43:32;;;;;;;21.10;6.70;;;;;;;;;;5049989;28;19920;-84
2021/10/09 10:46:01;;;;;;;22.00;7.40;;;;;;;;;;5049813;28;20174;-84
2021/10/09 10:48:46;;;;;;;22.00;6.40;;;;;;;;;;5051863;28;20076;-84
2021/10/09 10:51:34;;;;;;;11.38;5.38;;;;;;;;;;5050131;28;20063;-83
2021/10/09 10:54:35;;;;;;;18.70;6.32;;;;;;;;;;5033693;28;20044;-82
2021/10/09 10:57:03;;;;;;;20.08;5.30;;;;;;;;;;5058764;28;20132;-83
2021/10/09 10:59:30;;;;;;;23.17;5.90;;;;;;;;;;5030041;28;20057;-83
2021/10/09 11:02:11;;;;;;;19.95;5.15;;;;;;;;;;5046469;28;20124;-82
2021/10/09 11:04:58;;;;;;;13.52;5.30;;;;;;;;;;5057237;28;20445;-83
2021/10/09 11:07:29;;;;;;;14.32;5.38;;;;;;;;;;5066986;28;20084;-83
2021/10/09 11:10:08;;;;;;;14.52;5.50;;;;;;;;;;5048904;28;20087;-83
2021/10/09 11:12:39;;;;;;;20.38;5.85;;;;;;;;;;5050257;28;20048;-84
2021/10/09 11:15:06;;;;;;;15.68;5.70;;;;;;;;;;5049539;28;20457;-81
2021/10/09 11:17:41;;;;;;;20.30;5.80;;;;;;;;;;5049571;28;20057;-82
2021/10/09 11:20:09;;;;;;;9.67;4.77;;;;;;;;;;5046997;28;20164;-80
2021/10/09 11:22:40;;;;;;;13.05;4.95;;;;;;;;;;5046633;28;20060;-78
2021/10/09 11:25:08;;;;;;;180.80;13.65;;;;;;;;;;5034625;28;20569;-79
2021/10/09 11:27:37;;;;;;;14.35;4.88;;;;;;;;;;5047472;28;20080;-85
2021/10/09 11:30:06;;;;;;;11.98;4.97;;;;;;;;;;5048487;28;20095;-85
2021/10/09 11:32:34;;;;;;;17.40;4.45;;;;;;;;;;5048121;28;20545;-83
2021/10/09 11:35:02;;;;;;;18.30;4.88;;;;;;;;;;5040976;28;20443;-81
2021/10/09 11:37:29;;;;;;;13.48;4.70;;;;;;;;;;5051697;28;20140;-81
2021/10/09 11:40:02;;;;;;;13.77;4.93;;;;;;;;;;5048869;28;20128;-82
2021/10/09 11:42:41;;;;;;;11.45;4.10;;;;;;;;;;5048792;28;20131;-82
2021/10/09 11:53:43;;;;;;;11.02;4.38;;;;;;;;;;5054376;28;20080;-85
2021/10/09 11:56:12;;;;;;;15.60;4.43;;;;;;;;;;5054027;28;20133;-82
2021/10/09 11:58:52;;;;;;;13.52;4.85;;;;;;;;;;5056483;28;20041;-83
2021/10/09 12:01:29;;;;;;;13.70;3.83;;;;;;;;;;5053811;28;20132;-82
2021/10/09 12:03:58;;;;;;;8.52;4.05;;;;;;;;;;5053134;28;20079;-82
2021/10/09 12:06:40;;;;;;;9.75;3.90;;;;;;;;;;5055364;28;21016;-82
2021/10/09 12:09:09;;;;;;;7.43;4.45;;;;;;;;;;5064640;28;20438;-82
2021/10/09 12:11:36;;;;;;;6.32;3.42;;;;;;;;;;5051691;28;20477;-82
2021/10/09 12:14:05;;;;;;;14.88;4.80;;;;;;;;;;5053193;28;20053;-82
2021/10/09 12:16:36;;;;;;;9.85;4.32;;;;;;;;;;5052692;28;20045;-82
2021/10/09 12:19:04;;;;;;;16.65;4.47;;;;;;;;;;5051637;28;20057;-83
2021/10/09 12:21:39;;;;;;;20.35;4.25;;;;;;;;;;5052500;28;20048;-82
2021/10/09 12:24:13;;;;;;;13.82;4.90;;;;;;;;;;5053303;28;20057;-82
2021/10/09 12:26:41;;;;;;;17.73;4.10;;;;;;;;;;5057023;28;20573;-82
2021/10/09 12:29:12;;;;;;;8.88;3.90;;;;;;;;;;5069431;28;20137;-82
2021/10/09 12:31:43;;;;;;;12.18;4.15;;;;;;;;;;5058569;28;20123;-82
2021/10/09 12:34:26;;;;;;;9.18;4.10;;;;;;;;;;5068542;28;20118;-81
2021/10/09 12:37:12;;;;;;;18.00;4.43;;;;;;;;;;5058762;28;20115;-82
2021/10/09 12:39:41;;;;;;;9.47;4.30;;;;;;;;;;5035451;28;20100;-82
2021/10/09 12:42:10;;;;;;;13.82;3.83;;;;;;;;;;5052197;28;20089;-81
2021/10/09 12:44:37;;;;;;;7.63;4.60;;;;;;;;;;5051991;28;20139;-81
2021/10/09 12:47:04;;;;;;;10.13;3.85;;;;;;;;;;5052037;28;20052;-82
2021/10/09 12:49:32;;;;;;;10.30;4.55;;;;;;;;;;5051151;28;20052;-84
2021/10/09 12:51:59;;;;;;;16.92;4.60;;;;;;;;;;5052629;28;20076;-82
2021/10/09 12:54:28;;;;;;;11.20;4.13;;;;;;;;;;5052720;28;20048;-83
2021/10/09 12:56:58;;;;;;;13.55;4.35;;;;;;;;;;5061118;28;20128;-84
2021/10/09 12:59:26;;;;;;;7.90;4.40;;;;;;;;;;5051980;28;20124;-82
2021/10/09 13:01:54;;;;;;;14.48;4.68;;;;;;;;;;5063092;28;20087;-81
2021/10/09 13:04:21;;;;;;;10.88;4.18;;;;;;;;;;5053153;28;20053;-86
2021/10/09 13:06:48;;;;;;;8.82;4.20;;;;;;;;;;5061049;28;20454;-87
2021/10/09 13:09:17;;;;;;;22.35;4.72;;;;;;;;;;5051630;28;20072;-87
2021/10/09 13:11:58;;;;;;;10.07;4.38;;;;;;;;;;5069777;28;20068;-87
2021/10/09 13:14:25;;;;;;;12.02;4.43;;;;;;;;;;5058446;28;20128;-87
2021/10/09 13:16:52;;;;;;;9.07;4.40;;;;;;;;;;5057100;28;20128;-88
2021/10/09 13:19:20;;;;;;;10.98;4.68;;;;;;;;;;5058654;28;20077;-88
2021/10/09 13:21:54;;;;;;;8.43;4.85;;;;;;;;;;5063335;28;20068;-87
2021/10/09 13:24:21;;;;;;;10.05;4.32;;;;;;;;;;5061821;28;20114;-87
2021/10/09 13:26:48;;;;;;;13.88;5.45;;;;;;;;;;5059727;28;20068;-87
2021/10/09 13:29:16;;;;;;;11.10;5.35;;;;;;;;;;5059353;28;20123;-87
2021/10/09 13:31:46;;;;;;;13.60;6.15;;;;;;;;;;5055564;28;20053;-87
2021/10/09 13:34:13;;;;;;;13.23;5.55;;;;;;;;;;5060477;28;20299;-86
2021/10/09 13:36:40;;;;;;;11.82;5.40;;;;;;;;;;5059960;28;20557;-86
2021/10/09 13:39:08;;;;;;;13.90;6.32;;;;;;;;;;5062034;28;20091;-86
2021/10/09 13:41:36;;;;;;;15.85;6.78;;;;;;;;;;5057235;28;20703;-86
2021/10/09 13:44:03;;;;;;;18.52;6.38;;;;;;;;;;5059293;28;20092;-86
2021/10/09 13:46:32;;;;;;;21.20;6.20;;;;;;;;;;5062265;28;20059;-86
2021/10/09 13:49:00;;;;;;;15.90;6.00;;;;;;;;;;5054967;28;20400;-88
2021/10/09 13:51:28;;;;;;;28.52;7.35;;;;;;;;;;5057664;28;20080;-86
2021/10/09 13:53:56;;;;;;;21.25;7.22;;;;;;;;;;5058619;28;20083;-87
2021/10/09 13:56:23;;;;;;;20.00;7.15;;;;;;;;;;5059323;28;20104;-86
2021/10/09 13:58:50;;;;;;;17.95;6.35;;;;;;;;;;5065015;28;20090;-86
2021/10/09 14:01:37;;;;;;;15.40;6.55;;;;;;;;;;5060373;28;20409;-86
2021/10/09 14:04:05;;;;;;;13.93;6.90;;;;;;;;;;5067390;28;20083;-86
2021/10/09 14:06:32;;;;;;;20.58;6.80;;;;;;;;;;5064110;28;20831;-86
2021/10/09 14:08:59;;;;;;;16.75;7.30;;;;;;;;;;5055173;28;20159;-86
2021/10/09 14:11:26;;;;;;;13.40;7.15;;;;;;;;;;5050378;28;20057;-88
2021/10/09 14:13:55;;;;;;;21.25;6.43;;;;;;;;;;5051128;28;20044;-88
2021/10/09 14:16:26;;;;;;;16.52;6.25;;;;;;;;;;5051304;28;20498;-90
2021/10/09 14:19:01;;;;;;;17.15;6.63;;;;;;;;;;5051015;28;20060;-84
2021/10/09 14:21:47;;;;;;;21.05;7.32;;;;;;;;;;5046514;28;20050;-85
2021/10/09 14:24:22;;;;;;;26.88;9.20;;;;;;;;;;5050152;28;20528;-85
2021/10/09 14:26:58;;;;;;;19.42;6.80;;;;;;;;;;5060012;28;20504;-86
2021/10/09 14:29:25;;;;;;;14.18;6.63;;;;;;;;;;5054448;28;20114;-88
2021/10/09 14:31:54;;;;;;;14.07;6.40;;;;;;;;;;5057901;28;20076;-83
2021/10/09 14:34:22;;;;;;;24.50;8.10;;;;;;;;;;5059287;28;20055;-85
2021/10/09 14:36:49;;;;;;;17.55;8.70;;;;;;;;;;5057908;28;20119;-82
2021/10/09 14:39:16;;;;;;;14.25;6.13;;;;;;;;;;5050106;28;20115;-82
2021/10/09 14:41:43;;;;;;;16.85;7.18;;;;;;;;;;5049813;28;20052;-82
2021/10/09 14:44:12;;;;;;;17.83;6.88;;;;;;;;;;5049368;28;20072;-82
2021/10/09 14:47:27;;;;;;;17.27;6.20;;;;;;;;;;5051248;28;20536;-80
2021/10/09 14:49:51;;;;;;;17.38;6.82;;;;;;;;;;5048606;28;20084;-80
2021/10/09 15:19:52;;;;;;;17.00;7.00;;;;;;;;;;5050370;28;20469;-80
2021/10/09 15:22:19;;;;;;;13.07;5.57;;;;;;;;;;5052095;28;20064;-80
2021/10/09 15:24:46;;;;;;;12.52;4.82;;;;;;;;;;5067846;28;20144;-81
2021/10/09 15:27:14;;;;;;;18.20;5.65;;;;;;;;;;5054662;28;20548;-79
2021/10/09 15:29:44;;;;;;;11.35;5.45;;;;;;;;;;5060055;28;20132;-81
2021/10/09 15:32:11;;;;;;;15.40;5.95;;;;;;;;;;5053912;28;20089;-78
2021/10/09 15:34:39;;;;;;;13.55;5.57;;;;;;;;;;5051511;28;20491;-79
2021/10/09 15:37:06;;;;;;;10.05;5.25;;;;;;;;;;5059462;28;20063;-80
2021/10/09 15:39:34;;;;;;;19.42;5.78;;;;;;;;;;5053655;28;20084;-80
2021/10/09 15:42:05;;;;;;;11.38;5.00;;;;;;;;;;5053215;28;20143;-80
2021/10/09 15:44:33;;;;;;;14.20;5.75;;;;;;;;;;5053685;28;20095;-79
2021/10/09 15:47:00;;;;;;;16.30;5.90;;;;;;;;;;5049036;28;20159;-79
2021/10/09 15:49:28;;;;;;;14.10;5.63;;;;;;;;;;5051996;28;20513;-78
2021/10/09 15:51:57;;;;;;;15.82;6.13;;;;;;;;;;5053006;28;20059;-80
2021/10/09 15:54:29;;;;;;;13.05;5.65;;;;;;;;;;5044522;28;20398;-81
2021/10/09 15:56:57;;;;;;;30.17;6.80;;;;;;;;;;5061791;28;20129;-83
2021/10/09 15:59:27;;;;;;;16.77;6.13;;;;;;;;;;5052523;28;20135;-83
2021/10/09 16:01:54;;;;;;;12.20;6.03;;;;;;;;;;5062534;28;20087;-83
2021/10/09 16:04:21;;;;;;;19.00;8.80;;;;;;;;;;5065741;28;20103;-83
2021/10/09 16:06:53;;;;;;;16.42;6.68;;;;;;;;;;5060695;28;20085;-83
2021/10/09 16:09:20;;;;;;;14.57;7.07;;;;;;;;;;5069846;28;20128;-84
2021/10/09 16:11:47;;;;;;;14.30;5.85;;;;;;;;;;5055259;28;20132;-83
2021/10/09 16:14:14;;;;;;;14.25;6.95;;;;;;;;;;5052668;28;20140;-83
2021/10/09 16:16:41;;;;;;;13.18;6.40;;;;;;;;;;5052532;28;20508;-83
2021/10/09 16:19:09;;;;;;;14.63;6.55;;;;;;;;;;5052798;28;20144;-83
2021/10/09 16:21:36;;;;;;;16.15;6.45;;;;;;;;;;5053580;28;20772;-83
2021/10/09 16:24:03;;;;;;;23.77;7.75;;;;;;;;;;5052818;28;20144;-83
2021/10/09 16:26:49;;;;;;;18.15;6.78;;;;;;;;;;5063242;28;20123;-82
2021/10/09 16:29:16;;;;;;;11.95;6.55;;;;;;;;;;5049829;28;20051;-82
2021/10/09 16:31:43;;;;;;;18.27;6.90;;;;;;;;;;5032514;28;20824;-82
2021/10/09 16:34:11;;;;;;;16.42;7.05;;;;;;;;;;5048186;28;20132;-83
2021/10/09 16:36:38;;;;;;;19.60;7.55;;;;;;;;;;5060201;28;20492;-82
2021/10/09 16:39:06;;;;;;;25.30;9.98;;;;;;;;;;5062307;28;20763;-82
2021/10/09 16:41:33;;;;;;;41.53;21.05;;;;;;;;;;5053636;28;20049;-83
2021/10/09 16:44:00;;;;;;;65.20;36.45;;;;;;;;;;5052063;28;20049;-82
2021/10/09 16:46:27;;;;;;;67.72;37.13;;;;;;;;;;5051941;28;20109;-82
2021/10/09 16:49:08;;;;;;;62.42;34.45;;;;;;;;;;5052086;28;20156;-82
2021/10/09 16:51:35;;;;;;;47.35;26.30;;;;;;;;;;5052253;28;20764;-82
2021/10/09 16:54:03;;;;;;;46.80;22.92;;;;;;;;;;5053633;28;20102;-82
2021/10/09 16:56:31;;;;;;;33.95;18.08;;;;;;;;;;5061957;28;20071;-83
2021/10/09 16:58:58;;;;;;;34.50;17.52;;;;;;;;;;5056658;28;20099;-83
2021/10/09 17:01:32;;;;;;;34.95;17.98;;;;;;;;;;5059313;28;20128;-82
2021/10/09 17:04:00;;;;;;;36.08;19.10;;;;;;;;;;5051927;28;20053;-82
2021/10/09 17:06:27;;;;;;;41.72;22.65;;;;;;;;;;5061340;28;20053;-82
2021/10/09 17:08:58;;;;;;;59.65;31.88;;;;;;;;;;5071606;28;20079;-82
2021/10/09 17:11:26;;;;;;;53.15;28.30;;;;;;;;;;5062795;28;20061;-83